SBSV/SSA METAR and TAF weather

Enter ICAO airport designator
Station Type Date Time Source
SBSV METAR 2019/06/18 15:00 UTC NOAA

SBSV 181500Z 14011KT 9999 SCT020 29/20 Q1019


Station Type Date Time Source
SBSV Decoded METAR 2019/06/18 15:00 UTC NOAA

Salvador Aeroporto , Brazil (SBSV) 12-54S 038-20W 13M
Jun 18, 2019 - 11:00 AM EDT / 2019.06.18 1500 UTC
Wind: from the SE (140 degrees) at 13 MPH (11 KT):0
Visibility: greater than 7 mile(s):0
Sky conditions: partly cloudy
Temperature: 84 F (29 C)
Dew Point: 68 F (20 C)
Relative Humidity: 58%
Pressure (altimeter): 30.09 in. Hg (1019 hPa)
ob: SBSV 181500Z 14011KT 9999 SCT020 29/20 Q1019
cycle: 15

Station Type Date Time Source
SBSV TAF 2019/06/18 12:50 UTC NOAA

TAF SBSV 181000Z 1812/1912 16010KT 8000 BKN015 FEW020TCU TX26/1816Z T N24/1905Z PROB30 1817/1820 5000 SHRA SCT017 FEW025TCU
BECMG 1823/1901 12010KT 9999 SCT017
RMK PEN

Example: see airport list